Time;durP1;ratioP1;P1;durP2;ratioP2;P2;SDS_P1;SDS_P2;PMS_P1;PMS_P2;Temp;Humidity;BMP_temperature;BMP_pressure;BME280_temperature;BME280_humidity;BME280_pressure;Samples;Min_cycle;Max_cycle;Signal;HPM_P1;HPM_P2
2023/08/13 00:01:52;;;;;;;3.20;2.15;;;;;;;;;;4990370;28;20122;-79
2023/08/13 00:04:19;;;;;;;5.05;2.25;;;;;;;;;;4990471;28;20061;-78
2023/08/13 00:06:46;;;;;;;5.20;2.22;;;;;;;;;;4991203;28;20069;-79
2023/08/13 00:09:13;;;;;;;8.27;2.33;;;;;;;;;;4974574;28;20574;-80
2023/08/13 00:11:40;;;;;;;4.75;2.35;;;;;;;;;;4988834;28;20716;-79
2023/08/13 00:14:07;;;;;;;3.90;2.13;;;;;;;;;;5005003;28;20051;-78
2023/08/13 00:16:34;;;;;;;2.95;2.05;;;;;;;;;;4967136;28;20054;-80
2023/08/13 00:19:00;;;;;;;4.05;2.38;;;;;;;;;;4972518;28;20053;-79
2023/08/13 00:21:27;;;;;;;2.95;2.15;;;;;;;;;;4968714;28;20149;-79
2023/08/13 00:23:54;;;;;;;3.65;2.20;;;;;;;;;;4989199;28;20668;-79
2023/08/13 00:26:21;;;;;;;6.13;2.28;;;;;;;;;;4988245;28;20061;-79
2023/08/13 00:28:48;;;;;;;6.20;2.05;;;;;;;;;;4990918;28;20053;-79
2023/08/13 00:31:15;;;;;;;6.32;2.30;;;;;;;;;;4988819;28;20125;-80
2023/08/13 00:33:42;;;;;;;5.53;2.60;;;;;;;;;;4987088;28;20130;-81
2023/08/13 00:36:09;;;;;;;6.00;2.15;;;;;;;;;;4988150;28;20054;-78
2023/08/13 00:38:35;;;;;;;2.85;1.98;;;;;;;;;;4990971;28;20423;-79
2023/08/13 00:41:02;;;;;;;3.70;2.10;;;;;;;;;;4991129;28;20065;-80
2023/08/13 00:43:29;;;;;;;5.18;2.53;;;;;;;;;;4991668;28;20098;-78
2023/08/13 00:45:57;;;;;;;9.57;2.00;;;;;;;;;;4988273;28;20061;-79
2023/08/13 00:48:23;;;;;;;3.95;2.28;;;;;;;;;;4986974;28;20046;-79
2023/08/13 00:50:50;;;;;;;3.45;2.00;;;;;;;;;;4989729;28;20050;-79
2023/08/13 00:53:17;;;;;;;5.15;2.30;;;;;;;;;;4987883;28;20043;-79
2023/08/13 00:55:44;;;;;;;5.30;2.47;;;;;;;;;;4986371;28;20042;-79
2023/08/13 00:58:11;;;;;;;5.38;2.13;;;;;;;;;;4985698;28;20061;-80
2023/08/13 01:00:38;;;;;;;3.55;2.13;;;;;;;;;;4987600;28;20039;-79
2023/08/13 01:03:05;;;;;;;4.65;2.30;;;;;;;;;;4989182;28;20042;-79
2023/08/13 01:05:45;;;;;;;4.25;2.47;;;;;;;;;;4986630;28;20534;-79
2023/08/13 01:08:39;;;;;;;5.40;2.00;;;;;;;;;;4987261;28;20519;-80
2023/08/13 01:11:12;;;;;;;4.32;2.00;;;;;;;;;;4971940;28;21199;-79
2023/08/13 01:13:43;;;;;;;4.50;2.38;;;;;;;;;;4988423;28;21170;-80
2023/08/13 01:16:11;;;;;;;5.57;2.40;;;;;;;;;;4987344;28;20050;-80
2023/08/13 01:18:39;;;;;;;4.72;2.50;;;;;;;;;;4973670;28;20107;-79
2023/08/13 01:21:06;;;;;;;5.70;2.58;;;;;;;;;;4977038;28;20392;-79
2023/08/13 01:23:33;;;;;;;4.93;2.15;;;;;;;;;;4988942;28;20046;-80
2023/08/13 01:26:05;;;;;;;5.70;2.40;;;;;;;;;;4988004;28;20116;-80
2023/08/13 01:28:39;;;;;;;4.30;2.30;;;;;;;;;;4988301;28;20089;-79
2023/08/13 01:31:07;;;;;;;5.05;2.45;;;;;;;;;;4985436;28;20057;-80
2023/08/13 01:33:35;;;;;;;4.28;2.30;;;;;;;;;;4985882;28;20051;-79
2023/08/13 01:36:04;;;;;;;7.93;2.65;;;;;;;;;;4988601;28;20050;-79
2023/08/13 01:38:32;;;;;;;3.65;2.40;;;;;;;;;;4986962;28;20050;-81
2023/08/13 01:41:02;;;;;;;4.15;2.72;;;;;;;;;;4985656;28;20097;-79
2023/08/13 01:43:29;;;;;;;6.32;2.85;;;;;;;;;;4990697;28;20657;-79
2023/08/13 01:45:58;;;;;;;4.95;2.53;;;;;;;;;;4987341;28;20130;-79
2023/08/13 01:48:24;;;;;;;3.78;2.55;;;;;;;;;;4968496;28;20066;-79
2023/08/13 01:50:51;;;;;;;6.13;2.60;;;;;;;;;;4988169;28;20043;-78
2023/08/13 01:53:19;;;;;;;3.85;2.40;;;;;;;;;;4985055;28;20042;-80
2023/08/13 01:55:47;;;;;;;5.93;2.60;;;;;;;;;;4985473;28;20076;-79
2023/08/13 01:58:13;;;;;;;5.55;2.60;;;;;;;;;;4984928;28;20046;-79
2023/08/13 02:00:40;;;;;;;4.35;2.50;;;;;;;;;;4972091;28;20041;-79
2023/08/13 02:03:08;;;;;;;5.75;2.80;;;;;;;;;;4984638;28;20038;-78
2023/08/13 02:05:35;;;;;;;5.45;2.58;;;;;;;;;;4984867;28;20043;-79
2023/08/13 02:08:02;;;;;;;10.63;2.60;;;;;;;;;;4987031;28;20042;-79
2023/08/13 02:10:28;;;;;;;4.20;2.30;;;;;;;;;;4984680;28;20183;-80
2023/08/13 02:12:56;;;;;;;9.32;3.15;;;;;;;;;;4986787;28;20039;-80
2023/08/13 02:15:22;;;;;;;3.42;2.50;;;;;;;;;;4985142;28;20050;-80
2023/08/13 02:17:49;;;;;;;7.97;2.47;;;;;;;;;;4988627;28;20121;-80
2023/08/13 02:20:16;;;;;;;4.55;2.90;;;;;;;;;;4997620;28;20049;-79
2023/08/13 02:22:42;;;;;;;6.22;2.58;;;;;;;;;;4994423;28;20050;-79
2023/08/13 02:25:09;;;;;;;6.70;2.90;;;;;;;;;;4994891;28;20077;-79
2023/08/13 02:27:36;;;;;;;6.35;2.65;;;;;;;;;;4990101;28;20106;-78
2023/08/13 02:30:03;;;;;;;5.88;2.72;;;;;;;;;;4992652;28;20467;-79
2023/08/13 02:32:30;;;;;;;3.33;2.33;;;;;;;;;;4986542;28;20051;-79
2023/08/13 02:34:59;;;;;;;4.05;2.40;;;;;;;;;;4989945;28;20043;-80
2023/08/13 02:37:26;;;;;;;6.07;2.85;;;;;;;;;;4990441;28;20224;-82
2023/08/13 02:39:53;;;;;;;4.10;2.70;;;;;;;;;;4990856;28;20073;-81
2023/08/13 02:42:19;;;;;;;5.32;2.70;;;;;;;;;;4994965;28;20465;-82
2023/08/13 02:44:47;;;;;;;6.50;2.92;;;;;;;;;;4973210;28;20419;-81
2023/08/13 02:47:14;;;;;;;3.72;2.83;;;;;;;;;;4991053;28;20042;-80
2023/08/13 02:49:41;;;;;;;5.93;3.13;;;;;;;;;;4993519;28;20050;-80
2023/08/13 02:52:07;;;;;;;7.05;2.70;;;;;;;;;;4994223;28;20046;-80
2023/08/13 02:54:34;;;;;;;3.55;2.47;;;;;;;;;;4991841;28;20046;-82
2023/08/13 02:57:01;;;;;;;4.68;2.72;;;;;;;;;;4989297;28;20045;-80
2023/08/13 02:59:28;;;;;;;6.07;3.08;;;;;;;;;;4988896;28;20062;-80
2023/08/13 03:01:54;;;;;;;7.40;2.47;;;;;;;;;;4989618;28;20062;-80
2023/08/13 03:04:21;;;;;;;5.55;2.45;;;;;;;;;;4989057;28;20054;-81
2023/08/13 03:06:48;;;;;;;7.45;3.10;;;;;;;;;;4991853;28;20519;-80
2023/08/13 03:09:20;;;;;;;3.97;2.53;;;;;;;;;;4990042;28;20869;-79
2023/08/13 03:11:47;;;;;;;6.28;3.05;;;;;;;;;;4989162;28;20049;-80
2023/08/13 03:14:14;;;;;;;4.00;2.50;;;;;;;;;;4989464;28;20042;-79
2023/08/13 03:16:41;;;;;;;5.70;2.50;;;;;;;;;;4990009;28;20046;-81
2023/08/13 03:19:08;;;;;;;4.57;2.72;;;;;;;;;;4974022;28;20534;-79
2023/08/13 03:21:35;;;;;;;4.80;2.50;;;;;;;;;;4973968;28;20081;-81
2023/08/13 03:24:02;;;;;;;4.35;2.72;;;;;;;;;;4973814;28;20038;-80
2023/08/13 03:26:29;;;;;;;2.78;2.22;;;;;;;;;;4970390;28;20054;-80
2023/08/13 03:28:56;;;;;;;4.75;2.90;;;;;;;;;;4970368;28;20062;-79
2023/08/13 03:31:23;;;;;;;5.18;2.70;;;;;;;;;;4988860;28;20109;-79
2023/08/13 03:33:56;;;;;;;5.60;2.58;;;;;;;;;;4990216;28;20073;-81
2023/08/13 03:36:23;;;;;;;6.00;3.00;;;;;;;;;;4987828;28;20051;-81
2023/08/13 03:38:50;;;;;;;4.05;2.80;;;;;;;;;;4989641;28;20109;-80
2023/08/13 03:41:16;;;;;;;6.05;2.85;;;;;;;;;;4986721;28;20053;-80
2023/08/13 03:43:43;;;;;;;4.30;2.55;;;;;;;;;;4990337;28;20057;-81
2023/08/13 03:46:10;;;;;;;7.00;2.88;;;;;;;;;;4986558;28;20074;-80
2023/08/13 03:48:37;;;;;;;4.28;3.08;;;;;;;;;;4989085;28;20035;-82
2023/08/13 03:51:04;;;;;;;4.75;2.90;;;;;;;;;;4990409;28;20093;-81
2023/08/13 03:53:31;;;;;;;3.97;2.55;;;;;;;;;;4986946;28;20050;-82
2023/08/13 03:55:58;;;;;;;5.35;2.70;;;;;;;;;;4987222;28;20046;-80
2023/08/13 03:58:25;;;;;;;5.72;2.65;;;;;;;;;;4987151;28;20093;-81
2023/08/13 04:00:52;;;;;;;4.65;2.30;;;;;;;;;;4989872;28;20052;-81
2023/08/13 04:03:20;;;;;;;4.63;2.40;;;;;;;;;;4989607;28;20122;-81
2023/08/13 04:05:53;;;;;;;8.23;3.00;;;;;;;;;;4990276;28;21451;-81
2023/08/13 04:08:20;;;;;;;4.80;2.75;;;;;;;;;;4991391;28;20093;-80
2023/08/13 04:10:49;;;;;;;5.28;3.03;;;;;;;;;;4973607;28;20050;-79
2023/08/13 04:13:15;;;;;;;4.60;3.28;;;;;;;;;;4988171;28;20566;-78
2023/08/13 04:15:42;;;;;;;4.68;2.95;;;;;;;;;;5001878;28;20135;-81
2023/08/13 04:18:09;;;;;;;4.38;2.55;;;;;;;;;;5003012;28;20027;-80
2023/08/13 04:20:39;;;;;;;5.38;2.83;;;;;;;;;;5007054;28;20502;-80
2023/08/13 04:23:06;;;;;;;9.95;2.85;;;;;;;;;;4998577;28;20062;-79
2023/08/13 04:25:35;;;;;;;4.95;2.85;;;;;;;;;;4994145;28;20047;-79
2023/08/13 04:28:02;;;;;;;4.85;2.45;;;;;;;;;;4990507;28;20050;-79
2023/08/13 04:30:32;;;;;;;5.07;2.60;;;;;;;;;;4985389;28;20054;-78
2023/08/13 04:32:59;;;;;;;3.75;2.55;;;;;;;;;;4984724;28;20049;-80
2023/08/13 04:35:28;;;;;;;4.00;2.47;;;;;;;;;;4985424;28;20093;-79
2023/08/13 04:37:56;;;;;;;4.93;2.88;;;;;;;;;;4986448;28;20085;-80
2023/08/13 04:40:23;;;;;;;4.82;2.50;;;;;;;;;;4984100;28;20049;-80
2023/08/13 04:42:52;;;;;;;5.53;2.65;;;;;;;;;;4988938;28;20058;-79
2023/08/13 04:45:20;;;;;;;5.60;2.80;;;;;;;;;;4984200;28;20050;-81
2023/08/13 04:47:46;;;;;;;5.85;2.72;;;;;;;;;;4986490;28;20046;-81
2023/08/13 04:50:14;;;;;;;5.80;2.78;;;;;;;;;;4972827;28;20054;-79
2023/08/13 04:52:41;;;;;;;4.55;2.72;;;;;;;;;;4990285;28;20568;-81
2023/08/13 04:55:08;;;;;;;9.00;2.55;;;;;;;;;;4990524;28;20049;-81
2023/08/13 04:57:35;;;;;;;3.85;2.72;;;;;;;;;;4987265;28;20038;-83
2023/08/13 05:00:03;;;;;;;3.38;2.33;;;;;;;;;;4988370;28;20050;-80
2023/08/13 05:02:36;;;;;;;4.13;2.85;;;;;;;;;;4987505;28;20052;-79
2023/08/13 05:05:04;;;;;;;5.10;2.72;;;;;;;;;;4990017;28;20050;-78
2023/08/13 05:07:31;;;;;;;3.65;2.60;;;;;;;;;;4987149;28;20619;-80
2023/08/13 05:09:58;;;;;;;4.43;2.60;;;;;;;;;;4987496;28;20494;-80
2023/08/13 05:12:24;;;;;;;8.38;2.95;;;;;;;;;;4969721;28;21265;-78
2023/08/13 05:14:51;;;;;;;6.05;3.30;;;;;;;;;;4989772;28;20042;-80
2023/08/13 05:17:22;;;;;;;3.97;2.60;;;;;;;;;;4986506;28;20046;-80
2023/08/13 05:19:49;;;;;;;4.38;2.63;;;;;;;;;;4988245;28;20050;-80
2023/08/13 05:22:16;;;;;;;6.18;2.88;;;;;;;;;;4987919;28;20043;-81
2023/08/13 05:24:43;;;;;;;6.45;3.08;;;;;;;;;;4987686;28;20470;-79
2023/08/13 05:27:10;;;;;;;5.10;2.55;;;;;;;;;;4984715;28;20046;-79
2023/08/13 05:29:37;;;;;;;4.43;3.10;;;;;;;;;;4987355;28;20093;-80
2023/08/13 05:32:04;;;;;;;6.45;2.45;;;;;;;;;;4955313;28;20046;-80
2023/08/13 05:34:31;;;;;;;4.70;3.03;;;;;;;;;;4982178;28;20050;-78
2023/08/13 05:36:58;;;;;;;5.40;2.50;;;;;;;;;;4988861;28;20105;-78
2023/08/13 05:39:26;;;;;;;4.15;2.55;;;;;;;;;;4991498;28;20039;-79
2023/08/13 05:41:52;;;;;;;4.88;2.40;;;;;;;;;;4991779;28;20054;-79
2023/08/13 05:44:19;;;;;;;5.00;2.47;;;;;;;;;;4984130;28;20046;-77
2023/08/13 05:46:47;;;;;;;4.07;2.30;;;;;;;;;;4970127;28;20049;-78
2023/08/13 05:49:14;;;;;;;5.70;2.13;;;;;;;;;;4989342;28;20064;-78
2023/08/13 05:51:41;;;;;;;7.05;2.22;;;;;;;;;;4990047;28;20117;-79
2023/08/13 05:54:10;;;;;;;4.40;2.30;;;;;;;;;;4995026;28;20038;-78
2023/08/13 05:56:37;;;;;;;5.60;2.47;;;;;;;;;;4994677;28;20446;-78
2023/08/13 05:59:04;;;;;;;3.30;2.25;;;;;;;;;;4995044;28;20053;-77
2023/08/13 06:01:31;;;;;;;3.72;2.10;;;;;;;;;;4994183;28;20046;-77
2023/08/13 06:03:58;;;;;;;4.20;2.20;;;;;;;;;;4995198;28;20050;-78
2023/08/13 06:06:25;;;;;;;3.20;1.90;;;;;;;;;;4993368;28;20053;-79
2023/08/13 06:08:53;;;;;;;3.03;1.92;;;;;;;;;;4995089;28;20042;-78
2023/08/13 06:11:19;;;;;;;4.80;2.22;;;;;;;;;;4993541;28;20051;-78
2023/08/13 06:13:46;;;;;;;2.70;1.77;;;;;;;;;;4989908;28;20116;-79
2023/08/13 06:16:14;;;;;;;4.00;1.88;;;;;;;;;;4994230;28;20101;-80
2023/08/13 06:18:40;;;;;;;3.70;2.10;;;;;;;;;;4994985;28;20053;-79
2023/08/13 06:21:07;;;;;;;4.40;2.40;;;;;;;;;;4996071;28;20039;-80
2023/08/13 06:23:34;;;;;;;5.65;2.40;;;;;;;;;;4997939;28;20045;-79
2023/08/13 06:26:01;;;;;;;7.00;2.42;;;;;;;;;;4990069;28;20046;-80
2023/08/13 06:28:27;;;;;;;5.32;2.83;;;;;;;;;;4982751;28;20078;-81
2023/08/13 06:30:54;;;;;;;4.45;2.70;;;;;;;;;;4980954;28;20073;-80
2023/08/13 06:33:21;;;;;;;3.80;2.60;;;;;;;;;;4986717;28;20078;-79
2023/08/13 06:35:47;;;;;;;7.60;3.13;;;;;;;;;;4993438;28;20512;-80
2023/08/13 06:38:14;;;;;;;5.10;3.00;;;;;;;;;;4995573;28;20038;-80
2023/08/13 06:40:42;;;;;;;3.35;2.70;;;;;;;;;;4996682;28;20466;-80
2023/08/13 06:43:09;;;;;;;3.65;2.50;;;;;;;;;;4997735;28;20057;-78
2023/08/13 06:45:36;;;;;;;4.43;2.50;;;;;;;;;;4993694;28;20411;-79
2023/08/13 06:48:04;;;;;;;4.20;2.50;;;;;;;;;;4997742;28;20070;-78
2023/08/13 06:50:31;;;;;;;3.50;2.20;;;;;;;;;;4996107;28;20061;-79
2023/08/13 06:52:58;;;;;;;3.05;2.20;;;;;;;;;;4994942;28;20049;-79
2023/08/13 06:55:24;;;;;;;3.47;2.47;;;;;;;;;;4996891;28;20051;-79
2023/08/13 06:57:51;;;;;;;3.75;2.50;;;;;;;;;;4996302;28;20042;-79
2023/08/13 07:00:20;;;;;;;6.28;2.10;;;;;;;;;;4979456;28;20268;-79
2023/08/13 07:02:57;;;;;;;3.40;1.90;;;;;;;;;;4995836;28;20046;-79
2023/08/13 07:05:24;;;;;;;2.40;1.48;;;;;;;;;;4996378;28;20058;-79
2023/08/13 07:07:51;;;;;;;3.60;1.90;;;;;;;;;;4997689;28;20050;-80
2023/08/13 07:10:18;;;;;;;3.45;2.00;;;;;;;;;;4997081;28;20431;-79
2023/08/13 07:12:45;;;;;;;2.83;1.65;;;;;;;;;;4996750;28;20129;-79
2023/08/13 07:15:11;;;;;;;2.83;1.52;;;;;;;;;;4995706;28;20057;-79
2023/08/13 07:17:38;;;;;;;3.17;1.70;;;;;;;;;;4994403;28;20133;-80
2023/08/13 07:20:09;;;;;;;3.42;1.38;;;;;;;;;;4995557;28;20054;-78
2023/08/13 07:22:40;;;;;;;2.90;1.65;;;;;;;;;;4993731;28;20068;-79
2023/08/13 07:25:07;;;;;;;2.53;1.38;;;;;;;;;;4992241;28;20046;-78
2023/08/13 07:27:34;;;;;;;2.63;1.75;;;;;;;;;;4989608;28;20038;-78
2023/08/13 07:30:01;;;;;;;3.55;2.00;;;;;;;;;;4996304;28;20038;-79
2023/08/13 07:32:28;;;;;;;3.47;1.88;;;;;;;;;;4994149;28;20046;-78
2023/08/13 07:34:55;;;;;;;2.22;1.90;;;;;;;;;;4995307;28;20065;-79
2023/08/13 07:37:21;;;;;;;3.42;2.22;;;;;;;;;;4995154;28;20073;-78
2023/08/13 07:39:48;;;;;;;3.95;2.30;;;;;;;;;;4976103;28;20077;-79
2023/08/13 07:42:15;;;;;;;3.00;2.15;;;;;;;;;;4997399;28;20096;-78
2023/08/13 07:44:42;;;;;;;3.80;2.40;;;;;;;;;;4994766;28;20062;-79
2023/08/13 07:47:09;;;;;;;3.55;2.33;;;;;;;;;;4979396;28;20126;-78
2023/08/13 07:49:35;;;;;;;5.18;2.63;;;;;;;;;;4994427;28;20049;-79
2023/08/13 07:52:02;;;;;;;3.42;2.22;;;;;;;;;;4996767;28;20064;-79
2023/08/13 07:54:29;;;;;;;5.18;2.17;;;;;;;;;;4994496;28;20085;-79
2023/08/13 07:56:56;;;;;;;2.47;1.90;;;;;;;;;;4994117;28;20104;-79
2023/08/13 07:59:25;;;;;;;4.95;2.30;;;;;;;;;;4997241;28;20537;-78
2023/08/13 08:01:52;;;;;;;4.38;2.10;;;;;;;;;;4978485;28;20570;-78
2023/08/13 08:04:18;;;;;;;5.03;2.10;;;;;;;;;;4995031;28;20133;-79
2023/08/13 08:06:45;;;;;;;3.60;2.10;;;;;;;;;;4997396;28;20404;-79
2023/08/13 08:09:12;;;;;;;3.63;2.20;;;;;;;;;;4995091;28;20050;-78
2023/08/13 08:11:38;;;;;;;5.10;1.65;;;;;;;;;;4994848;28;20129;-79
2023/08/13 08:14:05;;;;;;;3.25;1.92;;;;;;;;;;4995916;28;20069;-79
2023/08/13 08:16:32;;;;;;;3.47;2.30;;;;;;;;;;4994022;28;20070;-79
2023/08/13 08:18:59;;;;;;;3.22;2.05;;;;;;;;;;4992738;28;20499;-79
2023/08/13 08:21:26;;;;;;;4.13;2.40;;;;;;;;;;5010478;28;20059;-79
2023/08/13 08:23:52;;;;;;;3.63;2.22;;;;;;;;;;4997483;28;20046;-79
2023/08/13 08:26:19;;;;;;;2.90;2.05;;;;;;;;;;4993509;28;20423;-78
2023/08/13 08:28:46;;;;;;;4.57;2.55;;;;;;;;;;4996460;28;20073;-79
2023/08/13 08:31:12;;;;;;;3.42;2.45;;;;;;;;;;4992638;28;20053;-78
2023/08/13 08:33:39;;;;;;;3.45;2.22;;;;;;;;;;4992938;28;20097;-79
2023/08/13 08:36:06;;;;;;;5.93;2.40;;;;;;;;;;4995324;28;20064;-78
2023/08/13 08:38:32;;;;;;;5.45;2.20;;;;;;;;;;4997997;28;20077;-79
2023/08/13 08:40:59;;;;;;;3.42;2.03;;;;;;;;;;4980405;28;20574;-79
2023/08/13 08:43:28;;;;;;;4.90;2.50;;;;;;;;;;4994511;28;20284;-79
2023/08/13 08:45:56;;;;;;;3.33;2.10;;;;;;;;;;5003897;28;20046;-79
2023/08/13 08:48:25;;;;;;;4.07;2.10;;;;;;;;;;5000967;28;20050;-79
2023/08/13 08:50:51;;;;;;;4.53;2.20;;;;;;;;;;4996256;28;21463;-79
2023/08/13 08:53:19;;;;;;;3.88;2.47;;;;;;;;;;4997194;28;20089;-78
2023/08/13 08:55:52;;;;;;;2.75;2.40;;;;;;;;;;4976006;28;20042;-79
2023/08/13 08:58:18;;;;;;;3.47;2.90;;;;;;;;;;4975649;28;20107;-78
2023/08/13 09:00:45;;;;;;;4.13;2.78;;;;;;;;;;4995406;28;20046;-79
2023/08/13 09:03:12;;;;;;;3.58;2.40;;;;;;;;;;4990360;28;20046;-77
2023/08/13 09:05:39;;;;;;;3.88;2.95;;;;;;;;;;4989166;28;20042;-78
2023/08/13 09:08:13;;;;;;;5.68;2.70;;;;;;;;;;4992314;28;20042;-79
2023/08/13 09:10:43;;;;;;;7.80;2.70;;;;;;;;;;4995038;28;20065;-78
2023/08/13 09:13:10;;;;;;;4.30;2.60;;;;;;;;;;4992899;28;20066;-78
2023/08/13 09:15:49;;;;;;;4.53;2.80;;;;;;;;;;4993437;28;20076;-79
2023/08/13 09:18:16;;;;;;;3.67;2.72;;;;;;;;;;4993432;28;20043;-79
2023/08/13 09:20:44;;;;;;;3.90;2.83;;;;;;;;;;4994446;28;20070;-79
2023/08/13 09:23:10;;;;;;;4.80;3.20;;;;;;;;;;4994732;28;20042;-78
2023/08/13 09:25:37;;;;;;;6.30;2.97;;;;;;;;;;4993781;28;20052;-79
2023/08/13 09:28:04;;;;;;;6.90;2.80;;;;;;;;;;4998773;28;20062;-79
2023/08/13 09:30:32;;;;;;;5.03;3.03;;;;;;;;;;5000305;28;20073;-79
2023/08/13 09:32:59;;;;;;;4.53;2.90;;;;;;;;;;4993340;28;20429;-79
2023/08/13 09:35:26;;;;;;;3.53;2.65;;;;;;;;;;4979564;28;20051;-78
2023/08/13 09:37:53;;;;;;;3.90;2.83;;;;;;;;;;4999761;28;20292;-78
2023/08/13 09:40:20;;;;;;;4.75;2.60;;;;;;;;;;5003245;28;20066;-77
2023/08/13 09:42:49;;;;;;;4.57;3.05;;;;;;;;;;5010959;28;20026;-79
2023/08/13 09:45:16;;;;;;;3.50;2.40;;;;;;;;;;5011507;28;20065;-78
2023/08/13 09:47:44;;;;;;;3.67;2.35;;;;;;;;;;5011987;28;20039;-79
2023/08/13 09:50:16;;;;;;;4.55;2.50;;;;;;;;;;5012189;28;20035;-79
2023/08/13 09:52:46;;;;;;;5.30;2.60;;;;;;;;;;5012290;28;20050;-78
2023/08/13 09:55:14;;;;;;;2.47;2.00;;;;;;;;;;4982779;28;20058;-78
2023/08/13 09:57:41;;;;;;;2.55;1.90;;;;;;;;;;4992553;28;20053;-78
2023/08/13 10:00:09;;;;;;;4.20;1.92;;;;;;;;;;4993273;28;20050;-78
2023/08/13 10:02:41;;;;;;;2.20;1.55;;;;;;;;;;4993012;28;20038;-77
2023/08/13 10:05:08;;;;;;;2.95;1.95;;;;;;;;;;4993122;28;20062;-77
2023/08/13 10:07:36;;;;;;;3.22;1.50;;;;;;;;;;4995064;28;20074;-77
2023/08/13 10:10:03;;;;;;;2.55;1.60;;;;;;;;;;4997096;28;20053;-77
2023/08/13 10:12:35;;;;;;;3.30;1.63;;;;;;;;;;4995686;28;20494;-78
2023/08/13 10:15:02;;;;;;;2.47;1.70;;;;;;;;;;4998681;28;20052;-78
2023/08/13 10:17:29;;;;;;;2.35;1.88;;;;;;;;;;4992918;28;20070;-77
2023/08/13 10:19:56;;;;;;;3.72;1.95;;;;;;;;;;4993758;28;20039;-79
2023/08/13 10:22:34;;;;;;;2.95;1.60;;;;;;;;;;4990430;28;20056;-77
2023/08/13 10:25:01;;;;;;;2.75;1.77;;;;;;;;;;4994672;28;20117;-78
2023/08/13 10:27:28;;;;;;;3.45;2.15;;;;;;;;;;4994430;28;20129;-78
2023/08/13 10:30:14;;;;;;;4.13;1.80;;;;;;;;;;4995576;28;20138;-77
2023/08/13 10:32:47;;;;;;;2.75;1.80;;;;;;;;;;4996329;28;21030;-78
2023/08/13 10:35:34;;;;;;;5.85;2.00;;;;;;;;;;4977837;28;20054;-77
2023/08/13 10:38:02;;;;;;;3.10;1.80;;;;;;;;;;4992023;28;20046;-78
2023/08/13 10:40:30;;;;;;;2.70;1.70;;;;;;;;;;4995302;28;20069;-78
2023/08/13 10:42:59;;;;;;;2.42;1.65;;;;;;;;;;4993221;28;20081;-77
2023/08/13 10:45:37;;;;;;;1.45;1.35;;;;;;;;;;4992384;28;20102;-77
2023/08/13 10:48:05;;;;;;;2.40;1.38;;;;;;;;;;4989841;28;20603;-79
2023/08/13 10:50:42;;;;;;;1.95;1.23;;;;;;;;;;4989932;28;21634;-78
2023/08/13 10:53:09;;;;;;;3.55;1.65;;;;;;;;;;4990247;28;20042;-77
2023/08/13 10:55:36;;;;;;;2.80;1.40;;;;;;;;;;5002903;28;20461;-79
2023/08/13 10:58:04;;;;;;;1.23;1.10;;;;;;;;;;4997883;28;20383;-79
2023/08/13 11:00:39;;;;;;;2.65;1.42;;;;;;;;;;4995785;28;20046;-78
2023/08/13 11:03:16;;;;;;;3.10;1.10;;;;;;;;;;4993650;28;20494;-79
2023/08/13 11:05:44;;;;;;;1.88;1.42;;;;;;;;;;4948531;28;20133;-79
2023/08/13 11:08:16;;;;;;;2.38;1.25;;;;;;;;;;4978856;28;20046;-79
2023/08/13 11:10:47;;;;;;;2.72;1.30;;;;;;;;;;4993846;28;20439;-79
2023/08/13 11:13:14;;;;;;;1.58;1.38;;;;;;;;;;4994142;28;20050;-79
2023/08/13 11:15:48;;;;;;;2.38;1.60;;;;;;;;;;4994817;28;20066;-78
2023/08/13 11:18:15;;;;;;;4.68;1.25;;;;;;;;;;4993818;28;20050;-79
2023/08/13 11:20:44;;;;;;;2.45;1.40;;;;;;;;;;4994768;28;20038;-79
2023/08/13 11:23:12;;;;;;;1.05;1.00;;;;;;;;;;4978587;28;20415;-79
2023/08/13 11:25:39;;;;;;;1.52;1.30;;;;;;;;;;4995676;28;20046;-79
2023/08/13 11:28:06;;;;;;;2.15;1.30;;;;;;;;;;4979008;28;20292;-80
2023/08/13 11:30:33;;;;;;;2.10;1.30;;;;;;;;;;4996898;28;20042;-79
2023/08/13 11:33:01;;;;;;;1.70;1.20;;;;;;;;;;4994669;28;20039;-80
2023/08/13 11:35:28;;;;;;;1.65;1.25;;;;;;;;;;4995360;28;20050;-78
2023/08/13 11:37:55;;;;;;;2.00;1.20;;;;;;;;;;4996014;28;20038;-79
2023/08/13 11:40:22;;;;;;;2.50;1.27;;;;;;;;;;4983276;28;20058;-80
2023/08/13 11:42:55;;;;;;;2.58;1.50;;;;;;;;;;4997338;28;20050;-80
2023/08/13 11:45:23;;;;;;;2.20;1.65;;;;;;;;;;4992977;28;20073;-79
2023/08/13 11:47:50;;;;;;;1.85;1.40;;;;;;;;;;4996282;28;20077;-80
2023/08/13 11:50:18;;;;;;;1.63;1.33;;;;;;;;;;4992503;28;20054;-79
2023/08/13 11:53:03;;;;;;;2.75;1.38;;;;;;;;;;5000048;28;20117;-79
2023/08/13 11:55:30;;;;;;;2.03;1.42;;;;;;;;;;5000014;28;20049;-79
2023/08/13 11:57:57;;;;;;;1.65;1.40;;;;;;;;;;4993722;28;20046;-78
2023/08/13 12:00:25;;;;;;;2.50;1.40;;;;;;;;;;4991273;28;20042;-77
2023/08/13 12:02:55;;;;;;;1.83;1.40;;;;;;;;;;4993300;28;20050;-79
2023/08/13 12:05:29;;;;;;;5.70;1.20;;;;;;;;;;4999052;28;20458;-78
2023/08/13 12:07:57;;;;;;;2.00;1.20;;;;;;;;;;4988674;28;20042;-79
2023/08/13 12:10:24;;;;;;;2.47;1.33;;;;;;;;;;4998807;28;20050;-78
2023/08/13 12:12:51;;;;;;;2.45;1.20;;;;;;;;;;4993586;28;20042;-77
2023/08/13 12:15:21;;;;;;;2.45;1.25;;;;;;;;;;4993118;28;20077;-78
2023/08/13 12:17:48;;;;;;;1.65;1.30;;;;;;;;;;4992446;28;20125;-78
2023/08/13 12:20:14;;;;;;;3.65;1.30;;;;;;;;;;4990780;28;20067;-78
2023/08/13 12:22:41;;;;;;;1.65;1.40;;;;;;;;;;5014475;28;20053;-79
2023/08/13 12:25:08;;;;;;;1.88;1.00;;;;;;;;;;4991760;28;20050;-79
2023/08/13 12:27:35;;;;;;;2.22;1.30;;;;;;;;;;4990521;28;20932;-78
2023/08/13 12:30:03;;;;;;;1.50;1.10;;;;;;;;;;4993308;28;20050;-77
2023/08/13 12:32:30;;;;;;;2.08;1.10;;;;;;;;;;4985115;28;20336;-78
2023/08/13 12:34:57;;;;;;;1.48;1.10;;;;;;;;;;4992172;28;20050;-76
2023/08/13 12:37:24;;;;;;;1.10;1.00;;;;;;;;;;4989381;28;20065;-77
2023/08/13 12:39:51;;;;;;;1.20;1.10;;;;;;;;;;4990051;28;20050;-77
2023/08/13 12:42:18;;;;;;;2.60;0.95;;;;;;;;;;4988238;28;20261;-77
2023/08/13 12:44:48;;;;;;;1.50;1.20;;;;;;;;;;5005241;28;20547;-78
2023/08/13 12:47:15;;;;;;;3.72;1.30;;;;;;;;;;4985444;28;20426;-77
2023/08/13 12:49:41;;;;;;;2.28;1.20;;;;;;;;;;4991020;28;20124;-78
2023/08/13 12:52:08;;;;;;;3.15;1.30;;;;;;;;;;4996251;28;20062;-77
2023/08/13 12:54:35;;;;;;;1.45;1.13;;;;;;;;;;4994925;28;20047;-77
2023/08/13 12:57:01;;;;;;;2.75;1.55;;;;;;;;;;4996783;28;20063;-78
2023/08/13 12:59:28;;;;;;;1.27;1.15;;;;;;;;;;4995349;28;20065;-76
2023/08/13 13:01:55;;;;;;;1.55;1.17;;;;;;;;;;4998011;28;20122;-77
2023/08/13 13:04:22;;;;;;;1.73;1.00;;;;;;;;;;4993520;28;20058;-77
2023/08/13 13:06:49;;;;;;;1.20;1.10;;;;;;;;;;4998418;28;20050;-78
2023/08/13 13:09:16;;;;;;;2.00;1.17;;;;;;;;;;4995684;28;20046;-77
2023/08/13 13:11:43;;;;;;;3.38;1.17;;;;;;;;;;4993338;28;20050;-78
2023/08/13 13:14:09;;;;;;;3.17;1.05;;;;;;;;;;4991752;28;20054;-77
2023/08/13 13:16:36;;;;;;;1.30;0.90;;;;;;;;;;4988537;28;20050;-77
2023/08/13 13:19:03;;;;;;;1.42;1.02;;;;;;;;;;4971745;28;20077;-77
2023/08/13 13:21:32;;;;;;;2.45;1.20;;;;;;;;;;4990050;28;20062;-77
2023/08/13 13:23:58;;;;;;;1.98;1.10;;;;;;;;;;4991012;28;20069;-78
2023/08/13 13:26:25;;;;;;;1.40;1.13;;;;;;;;;;4986802;28;20047;-76
2023/08/13 13:28:52;;;;;;;1.45;1.10;;;;;;;;;;4990893;28;20042;-77
2023/08/13 13:31:18;;;;;;;1.90;1.08;;;;;;;;;;4991046;28;20057;-77
2023/08/13 13:33:45;;;;;;;1.60;1.08;;;;;;;;;;4986065;28;20042;-77
2023/08/13 13:36:12;;;;;;;1.75;1.10;;;;;;;;;;4987574;28;20050;-76
2023/08/13 13:38:38;;;;;;;2.13;1.17;;;;;;;;;;4991445;28;20035;-77
2023/08/13 13:41:05;;;;;;;2.20;1.20;;;;;;;;;;4991165;28;20042;-76
2023/08/13 13:43:32;;;;;;;2.65;1.30;;;;;;;;;;4991866;28;20475;-76
2023/08/13 13:45:58;;;;;;;1.30;1.10;;;;;;;;;;4988143;28;20038;-76
2023/08/13 13:48:25;;;;;;;2.05;1.30;;;;;;;;;;4989424;28;20050;-78
2023/08/13 13:50:52;;;;;;;2.10;1.15;;;;;;;;;;4985435;28;20404;-76
2023/08/13 13:53:19;;;;;;;1.48;1.10;;;;;;;;;;4977316;28;20664;-77
2023/08/13 13:55:47;;;;;;;1.95;1.13;;;;;;;;;;4983801;28;20046;-78
2023/08/13 13:58:14;;;;;;;2.20;1.20;;;;;;;;;;4984991;28;20113;-78
2023/08/13 14:00:41;;;;;;;1.75;1.20;;;;;;;;;;4987182;28;20046;-79
2023/08/13 14:03:07;;;;;;;1.80;1.13;;;;;;;;;;4983504;28;20081;-77
2023/08/13 14:05:34;;;;;;;1.35;1.20;;;;;;;;;;4981788;28;20645;-76
2023/08/13 14:08:01;;;;;;;2.22;1.30;;;;;;;;;;4986177;28;20076;-78
2023/08/13 14:10:28;;;;;;;2.35;1.55;;;;;;;;;;4985564;28;20051;-77
2023/08/13 14:12:54;;;;;;;1.13;1.00;;;;;;;;;;4984486;28;22323;-77
2023/08/13 14:15:21;;;;;;;1.40;1.15;;;;;;;;;;4987677;28;20054;-78
2023/08/13 14:17:48;;;;;;;1.73;1.00;;;;;;;;;;4986112;28;20459;-77
2023/08/13 14:20:15;;;;;;;1.77;1.23;;;;;;;;;;4987404;28;20057;-76
2023/08/13 14:22:41;;;;;;;2.17;1.17;;;;;;;;;;4988215;28;20144;-78
2023/08/13 14:25:09;;;;;;;6.13;1.42;;;;;;;;;;4986592;28;20066;-78
2023/08/13 14:27:36;;;;;;;1.30;1.20;;;;;;;;;;4987524;28;20426;-79
2023/08/13 14:30:02;;;;;;;1.85;1.13;;;;;;;;;;4989936;28;20050;-79
2023/08/13 14:32:29;;;;;;;1.95;1.08;;;;;;;;;;4989049;28;20137;-79
2023/08/13 14:34:56;;;;;;;1.40;1.00;;;;;;;;;;4989311;28;22658;-79
2023/08/13 14:37:22;;;;;;;4.00;1.35;;;;;;;;;;4990085;28;20046;-78
2023/08/13 14:39:49;;;;;;;2.80;1.05;;;;;;;;;;4992357;28;20042;-77
2023/08/13 14:42:16;;;;;;;1.88;1.30;;;;;;;;;;4996396;28;20054;-78
2023/08/13 14:44:43;;;;;;;2.35;1.20;;;;;;;;;;4994186;28;20421;-77
2023/08/13 14:47:10;;;;;;;2.15;1.33;;;;;;;;;;4991523;28;20050;-78